Time;durP1;ratioP1;P1;durP2;ratioP2;P2;SDS_P1;SDS_P2;PMS_P1;PMS_P2;Temp;Humidity;BMP_temperature;BMP_pressure;BME280_temperature;BME280_humidity;BME280_pressure;Samples;Min_cycle;Max_cycle;Signal;HPM_P1;HPM_P2
2021/06/16 00:01:04;;;;;;;0.73;0.30;;;18.10;55.80;;;;;;5017244;28;20078;-81
2021/06/16 00:03:29;;;;;;;0.47;0.20;;;18.00;55.70;;;;;;5037422;28;20033;-80
2021/06/16 00:05:55;;;;;;;0.22;0.22;;;18.00;55.80;;;;;;5020338;28;20472;-81
2021/06/16 00:08:21;;;;;;;1.08;0.38;;;18.00;55.90;;;;;;5015827;28;20068;-82
2021/06/16 00:10:47;;;;;;;0.30;0.30;;;18.00;55.90;;;;;;4998893;28;20076;-82
2021/06/16 00:13:12;;;;;;;0.63;0.38;;;17.90;55.90;;;;;;5014944;28;20056;-82
2021/06/16 00:15:42;;;;;;;0.38;0.38;;;17.90;56.00;;;;;;5017319;28;20133;-82
2021/06/16 00:18:09;;;;;;;0.47;0.30;;;17.90;56.10;;;;;;5011575;28;20045;-82
2021/06/16 00:20:37;;;;;;;0.43;0.30;;;17.90;56.20;;;;;;5015255;28;20044;-82
2021/06/16 00:23:05;;;;;;;0.25;0.25;;;17.90;56.20;;;;;;5016087;28;20112;-82
2021/06/16 00:25:31;;;;;;;0.63;0.40;;;17.90;56.20;;;;;;5011960;28;20387;-82
2021/06/16 00:27:57;;;;;;;0.43;0.20;;;17.80;56.20;;;;;;5010660;28;20121;-82
2021/06/16 00:30:24;;;;;;;0.32;0.30;;;17.80;56.40;;;;;;5015390;28;20136;-81
2021/06/16 00:32:50;;;;;;;1.27;0.30;;;17.70;56.50;;;;;;5028278;28;20029;-82
2021/06/16 00:35:19;;;;;;;0.32;0.32;;;17.70;56.60;;;;;;4999000;28;20048;-82
2021/06/16 00:37:48;;;;;;;0.45;0.30;;;17.70;56.70;;;;;;4999398;28;20678;-82
2021/06/16 00:40:17;;;;;;;0.30;0.30;;;17.70;56.70;;;;;;5015683;28;20041;-82
2021/06/16 00:43:08;;;;;;;0.30;0.30;;;17.70;56.70;;;;;;5006968;28;20049;-82
2021/06/16 00:45:45;;;;;;;0.50;0.30;;;17.70;56.80;;;;;;5004081;28;20045;-82
2021/06/16 00:48:14;;;;;;;0.57;0.32;;;17.60;56.70;;;;;;4998768;28;20499;-83
2021/06/16 00:50:47;;;;;;;0.30;0.30;;;17.60;56.70;;;;;;4997487;28;20120;-82
2021/06/16 00:56:12;;;;;;;0.20;0.20;;;17.70;56.80;;;;;;4990569;28;20136;-82
2021/06/16 00:58:39;;;;;;;0.30;0.30;;;17.60;56.80;;;;;;4975756;28;20174;-82
2021/06/16 01:02:01;;;;;;;0.75;0.30;;;17.60;56.80;;;;;;4976453;28;20054;-83
2021/06/16 01:04:29;;;;;;;0.22;0.22;;;17.60;56.90;;;;;;4913362;29;20511;-83
2021/06/16 01:06:59;;;;;;;0.30;0.30;;;17.60;56.80;;;;;;4914117;29;20044;-83
2021/06/16 01:09:33;;;;;;;0.30;0.30;;;17.60;56.90;;;;;;4913742;29;20440;-83
2021/06/16 01:12:23;;;;;;;0.90;0.30;;;17.50;56.90;;;;;;4901466;29;20126;-82
2021/06/16 01:15:01;;;;;;;0.30;0.30;;;17.50;56.90;;;;;;4916942;29;20039;-83
2021/06/16 01:17:34;;;;;;;0.40;0.30;;;17.50;57.00;;;;;;4902254;29;20111;-82
2021/06/16 01:20:26;;;;;;;0.30;0.30;;;17.50;57.10;;;;;;4912697;28;20869;-83
2021/06/16 01:23:13;;;;;;;0.57;0.30;;;17.50;57.20;;;;;;4940539;28;20118;-83
2021/06/16 01:26:16;;;;;;;0.35;0.20;;;17.40;57.20;;;;;;4924563;28;20086;-82
2021/06/16 01:28:44;;;;;;;0.40;0.40;;;17.40;57.20;;;;;;4954542;28;20198;-83
2021/06/16 01:31:12;;;;;;;0.32;0.20;;;17.30;57.20;;;;;;4955089;28;20039;-82
2021/06/16 01:33:39;;;;;;;0.30;0.30;;;17.40;57.30;;;;;;4923978;28;20137;-83
2021/06/16 01:36:07;;;;;;;1.25;0.50;;;17.40;57.40;;;;;;5002340;28;20467;-83
2021/06/16 01:38:33;;;;;;;0.32;0.30;;;17.30;57.40;;;;;;5034211;28;20053;-81
2021/06/16 01:41:03;;;;;;;0.75;0.30;;;17.30;57.50;;;;;;5018128;28;20032;-83
2021/06/16 01:43:30;;;;;;;0.30;0.30;;;17.30;57.60;;;;;;5001950;28;20025;-82
2021/06/16 01:46:00;;;;;;;0.38;0.22;;;17.30;57.60;;;;;;5017649;28;20044;-83
2021/06/16 01:48:28;;;;;;;0.28;0.28;;;17.30;57.70;;;;;;4973437;28;20094;-83
2021/06/16 01:50:55;;;;;;;0.40;0.38;;;17.20;57.70;;;;;;4973389;28;20138;-82
2021/06/16 01:54:17;;;;;;;0.30;0.30;;;17.10;57.80;;;;;;4972450;28;20051;-83
2021/06/16 01:57:10;;;;;;;0.63;0.38;;;17.20;57.90;;;;;;4968208;28;20536;-83
2021/06/16 01:59:43;;;;;;;0.30;0.30;;;17.20;58.00;;;;;;4954218;28;20054;-83
2021/06/16 02:02:13;;;;;;;0.50;0.40;;;17.10;58.00;;;;;;4894280;29;20037;-82
2021/06/16 02:04:44;;;;;;;0.30;0.30;;;17.10;58.70;;;;;;4862917;29;20036;-83
2021/06/16 02:07:14;;;;;;;;;;;17.10;58.30;;;;;;4894238;29;20051;-82
2021/06/16 02:09:45;;;;;;;0.38;0.30;;;17.00;58.30;;;;;;4894183;29;19914;-82
2021/06/16 02:12:14;;;;;;;0.43;0.40;;;17.00;58.40;;;;;;4848291;29;20119;-82
2021/06/16 02:14:48;;;;;;;0.30;0.20;;;16.90;58.50;;;;;;4880280;29;20158;-82
2021/06/16 02:17:16;;;;;;;0.45;0.30;;;16.90;58.60;;;;;;4846020;29;20053;-82
2021/06/16 02:19:45;;;;;;;0.40;0.30;;;16.90;58.60;;;;;;4891743;29;20047;-83
2021/06/16 02:22:13;;;;;;;0.30;0.30;;;16.90;58.70;;;;;;4896067;29;20119;-83
2021/06/16 02:24:48;;;;;;;0.40;0.30;;;16.90;58.70;;;;;;4881697;29;20056;-83
2021/06/16 02:27:17;;;;;;;0.30;0.30;;;16.90;58.80;;;;;;4863440;29;20041;-83
2021/06/16 02:29:45;;;;;;;0.20;0.20;;;16.80;58.90;;;;;;4848753;29;20094;-83
2021/06/16 02:32:16;;;;;;;0.30;0.20;;;16.80;59.00;;;;;;4864894;29;20045;-83
2021/06/16 02:34:50;;;;;;;0.40;0.40;;;16.80;59.10;;;;;;4830496;29;20465;-83
2021/06/16 02:37:20;;;;;;;0.40;0.40;;;16.80;59.10;;;;;;4841939;29;20064;-83
2021/06/16 02:40:11;;;;;;;0.50;0.50;;;16.80;59.20;;;;;;4846674;29;20139;-83
2021/06/16 02:42:49;;;;;;;1.00;0.43;;;16.70;59.30;;;;;;4891483;29;20035;-83
2021/06/16 02:45:22;;;;;;;0.30;0.30;;;16.70;59.20;;;;;;4908776;29;20041;-82
2021/06/16 02:47:50;;;;;;;0.47;0.30;;;16.70;59.30;;;;;;4919943;29;20048;-83
2021/06/16 02:50:23;;;;;;;0.22;0.22;;;16.70;59.30;;;;;;4901135;29;20100;-83
2021/06/16 02:53:01;;;;;;;1.55;0.75;;;16.80;59.40;;;;;;4861493;29;20113;-83
2021/06/16 02:55:36;;;;;;;0.30;0.30;;;16.60;59.50;;;;;;4830322;29;20039;-83
2021/06/16 02:58:03;;;;;;;0.30;0.30;;;16.70;59.50;;;;;;4813769;29;20038;-82
2021/06/16 03:00:30;;;;;;;0.50;0.40;;;16.60;59.50;;;;;;4842319;29;20057;-83
2021/06/16 03:02:58;;;;;;;0.52;0.40;;;16.60;59.60;;;;;;4836099;29;20419;-82
2021/06/16 03:05:27;;;;;;;1.05;0.50;;;16.60;59.70;;;;;;4824733;29;20164;-83
2021/06/16 03:07:56;;;;;;;0.30;0.30;;;16.60;59.80;;;;;;4823446;29;20058;-83
2021/06/16 03:10:24;;;;;;;0.40;0.40;;;16.60;59.90;;;;;;4822596;29;20490;-83
2021/06/16 03:12:53;;;;;;;0.82;0.43;;;16.50;59.90;;;;;;4833061;29;20576;-81
2021/06/16 03:15:19;;;;;;;0.30;0.30;;;16.50;60.00;;;;;;4806952;29;20050;-82
2021/06/16 03:17:47;;;;;;;0.60;0.47;;;16.50;60.10;;;;;;4821878;29;20060;-82
2021/06/16 03:20:17;;;;;;;0.32;0.30;;;16.40;60.10;;;;;;4833340;29;20102;-82
2021/06/16 03:22:45;;;;;;;0.30;0.30;;;16.40;60.20;;;;;;4881585;29;20182;-82
2021/06/16 03:25:13;;;;;;;1.13;0.40;;;16.40;60.30;;;;;;4918628;29;20104;-82
2021/06/16 03:27:46;;;;;;;1.27;0.45;;;16.40;60.30;;;;;;4902908;29;20102;-82
2021/06/16 03:30:13;;;;;;;1.00;0.63;;;16.40;60.40;;;;;;4938217;29;20115;-82
2021/06/16 03:32:42;;;;;;;0.40;0.40;;;16.50;60.50;;;;;;4977609;28;20034;-82
2021/06/16 03:35:09;;;;;;;0.43;0.32;;;16.40;60.50;;;;;;5001082;28;20511;-82
2021/06/16 03:37:37;;;;;;;0.80;0.40;;;16.40;60.50;;;;;;4981582;28;20136;-82
2021/06/16 03:40:06;;;;;;;0.30;0.30;;;16.40;60.50;;;;;;4943050;28;20055;-82
2021/06/16 03:42:39;;;;;;;0.50;0.50;;;16.40;60.50;;;;;;4922526;29;20529;-82
2021/06/16 03:45:08;;;;;;;0.28;0.28;;;16.30;60.50;;;;;;4996802;28;20083;-82
2021/06/16 03:47:38;;;;;;;0.40;0.40;;;16.30;60.60;;;;;;4981060;28;20030;-82
2021/06/16 03:50:07;;;;;;;0.30;0.30;;;16.50;60.70;;;;;;4966127;28;20050;-81
2021/06/16 03:52:36;;;;;;;0.38;0.38;;;16.40;60.60;;;;;;4976664;28;20051;-81
2021/06/16 03:55:03;;;;;;;0.30;0.30;;;16.50;60.70;;;;;;4961887;28;20497;-81
2021/06/16 03:57:31;;;;;;;0.68;0.40;;;16.40;60.60;;;;;;4978488;28;20039;-81
2021/06/16 03:59:57;;;;;;;0.82;0.60;;;16.40;60.60;;;;;;4983617;28;20047;-80
2021/06/16 04:02:23;;;;;;;0.40;0.40;;;16.40;60.60;;;;;;4965148;28;20047;-82
2021/06/16 04:04:51;;;;;;;0.55;0.50;;;16.40;60.60;;;;;;4970165;28;20041;-81
2021/06/16 04:07:19;;;;;;;0.65;0.40;;;16.40;60.60;;;;;;4955995;28;20122;-81
2021/06/16 04:09:52;;;;;;;0.50;0.50;;;16.40;60.60;;;;;;4947348;28;20055;-82
2021/06/16 04:12:20;;;;;;;0.45;0.43;;;16.50;60.60;;;;;;4999901;28;20043;-81
2021/06/16 04:14:47;;;;;;;1.30;0.63;;;16.50;60.60;;;;;;4969681;28;20027;-83
2021/06/16 04:17:15;;;;;;;0.47;0.47;;;16.60;60.60;;;;;;4985560;28;20050;-82
2021/06/16 04:19:43;;;;;;;0.35;0.35;;;16.50;60.60;;;;;;5030510;28;20056;-82
2021/06/16 04:22:09;;;;;;;0.68;0.38;;;16.60;60.70;;;;;;5032362;28;20193;-82
2021/06/16 04:24:34;;;;;;;0.68;0.30;;;16.60;60.60;;;;;;5049720;22;20019;-83
